createdAt,value
2019-06-20T00:04:47.824Z,22.24
2019-06-20T00:09:43.611Z,22.20
2019-06-20T00:14:39.387Z,22.38
2019-06-20T00:19:35.232Z,22.41
2019-06-20T00:24:31.158Z,22.45
2019-06-20T00:29:27.265Z,21.93
2019-06-20T00:34:23.012Z,21.90
2019-06-20T00:39:18.805Z,22.28
2019-06-20T00:44:14.513Z,21.68
2019-06-20T00:49:10.285Z,21.78
2019-06-20T00:54:06.273Z,22.02
2019-06-20T00:59:02.340Z,21.95
2019-06-20T01:03:58.214Z,22.03
2019-06-20T01:08:54.068Z,21.91
2019-06-20T01:13:52.730Z,21.79
2019-06-20T01:18:47.372Z,21.75
2019-06-20T01:23:43.131Z,21.42
2019-06-20T01:28:38.858Z,21.53
2019-06-20T01:33:34.706Z,21.71
2019-06-20T01:38:30.598Z,21.57
2019-06-20T01:43:26.364Z,21.54
2019-06-20T01:48:22.248Z,21.59
2019-06-20T01:53:19.304Z,21.78
2019-06-20T01:58:15.056Z,21.71
2019-06-20T02:03:10.774Z,21.17
2019-06-20T02:08:07.685Z,21.16
2019-06-20T02:13:03.682Z,21.36
2019-06-20T02:17:59.542Z,21.34
2019-06-20T02:22:55.353Z,21.28
2019-06-20T02:27:51.223Z,21.28
2019-06-20T02:32:47.152Z,21.33
2019-06-20T02:37:43.158Z,21.38
2019-06-20T02:42:38.880Z,21.17
2019-06-20T02:47:34.653Z,21.00
2019-06-20T02:52:30.758Z,20.81
2019-06-20T02:57:26.601Z,20.72
2019-06-20T03:02:22.366Z,20.71
2019-06-20T03:07:18.142Z,20.87
2019-06-20T03:12:13.969Z,20.78
2019-06-20T03:17:09.761Z,20.91
2019-06-20T03:22:05.493Z,21.00
2019-06-20T03:27:01.248Z,20.80
2019-06-20T03:31:57.053Z,20.52
2019-06-20T03:36:52.880Z,20.60
2019-06-20T03:41:48.679Z,20.68
2019-06-20T03:46:44.513Z,20.63
2019-06-20T03:51:40.315Z,20.68
2019-06-20T03:56:36.124Z,20.63
2019-06-20T04:01:32.464Z,20.34
2019-06-20T04:06:28.224Z,20.53
2019-06-20T04:11:23.980Z,20.59
2019-06-20T04:16:20.750Z,20.60
2019-06-20T04:21:16.649Z,20.53
2019-06-20T04:26:12.480Z,20.51
2019-06-20T04:31:08.207Z,20.61
2019-06-20T04:36:04.011Z,20.62
2019-06-20T04:41:00.106Z,20.49
2019-06-20T04:46:04.433Z,20.44
2019-06-20T04:51:00.149Z,20.45
2019-06-20T04:55:55.920Z,20.35
2019-06-20T05:00:51.852Z,20.28
2019-06-20T05:05:47.824Z,20.50
2019-06-20T05:10:43.923Z,20.32
2019-06-20T05:15:51.952Z,20.88
2019-06-20T05:20:38.756Z,21.85
2019-06-20T05:25:34.963Z,22.22
2019-06-20T05:30:31.529Z,21.87
2019-06-20T05:35:27.317Z,22.59
2019-06-20T05:40:23.253Z,22.90
2019-06-20T05:45:19.473Z,23.34
2019-06-20T05:50:16.634Z,23.73
2019-06-20T05:55:12.672Z,23.96
2019-06-20T06:00:15.489Z,23.19
2019-06-20T06:05:11.407Z,22.53
2019-06-20T06:10:08.849Z,22.32
2019-06-20T06:15:04.777Z,22.44
2019-06-20T06:20:00.566Z,22.95
2019-06-20T06:24:56.662Z,23.01
2019-06-20T06:29:53.439Z,22.96
2019-06-20T06:34:50.641Z,22.96
2019-06-20T06:39:46.943Z,22.92
2019-06-20T06:44:43.206Z,22.85
2019-06-20T06:49:38.956Z,22.75
2019-06-20T06:54:34.917Z,22.26
2019-06-20T06:59:30.780Z,22.07
2019-06-20T07:04:26.560Z,22.35
2019-06-20T07:09:22.425Z,22.38
2019-06-20T07:14:18.234Z,22.33
2019-06-20T07:19:14.115Z,22.54
2019-06-20T07:24:09.885Z,22.85
2019-06-20T07:34:07.961Z,23.21
2019-06-20T07:39:15.416Z,23.58
2019-06-20T07:44:27.636Z,23.27
2019-06-20T07:49:23.487Z,22.98
2019-06-20T07:54:21.665Z,23.62
2019-06-20T07:59:21.786Z,24.33
2019-06-20T08:04:20.852Z,25.06
2019-06-20T08:09:17.212Z,24.83
2019-06-20T08:14:28.484Z,23.82
2019-06-20T08:19:24.374Z,23.20
2019-06-20T08:24:20.327Z,22.75
2019-06-20T08:29:21.130Z,22.38
2019-06-20T08:34:14.100Z,22.42
2019-06-20T08:45:39.259Z,23.04
2019-06-20T08:50:46.575Z,23.28
2019-06-20T08:56:10.710Z,22.93
2019-06-20T09:06:32.912Z,22.49
2019-06-20T09:11:28.784Z,22.40
2019-06-20T09:16:24.890Z,22.39
2019-06-20T09:40:39.847Z,23.02
2019-06-20T09:45:44.886Z,23.03
2019-06-20T09:50:54.503Z,22.97
2019-06-20T09:55:54.188Z,22.92
2019-06-20T10:00:55.025Z,22.91
2019-06-20T10:05:56.694Z,22.69
2019-06-20T10:10:56.724Z,22.42
2019-06-20T10:15:53.653Z,22.43
2019-06-20T10:21:11.352Z,22.62
2019-06-20T10:26:31.678Z,22.49
2019-06-20T10:31:32.127Z,22.18
2019-06-20T10:36:44.820Z,21.95
2019-06-20T10:41:40.234Z,22.00
2019-06-20T10:46:58.594Z,21.85
2019-06-20T10:51:59.393Z,21.68
2019-06-20T10:56:57.478Z,21.72
2019-06-20T11:02:02.127Z,21.60
2019-06-20T11:07:01.440Z,21.47
2019-06-20T11:11:57.268Z,21.33
2019-06-20T11:16:53.309Z,21.32
2019-06-20T11:21:59.776Z,21.53
2019-06-20T11:26:53.720Z,21.70
2019-06-20T11:31:50.591Z,21.58
2019-06-20T11:37:06.907Z,21.65
2019-06-20T11:42:12.669Z,21.50
2019-06-20T11:47:13.436Z,21.56
2019-06-20T11:52:14.333Z,21.51
2019-06-20T11:58:34.181Z,21.37
2019-06-20T12:10:25.021Z,21.25
2019-06-20T12:15:22.678Z,21.14
2019-06-20T12:20:20.788Z,21.32
2019-06-20T12:25:19.602Z,21.42
2019-06-20T12:30:18.152Z,21.52
2019-06-20T12:35:15.244Z,21.82
2019-06-20T12:40:12.090Z,22.30
2019-06-20T12:45:08.371Z,22.58
2019-06-20T12:50:04.453Z,22.72
2019-06-20T12:55:00.548Z,22.98
2019-06-20T13:00:01.667Z,23.23
2019-06-20T13:04:57.436Z,23.14
2019-06-20T13:09:53.254Z,22.77
2019-06-20T13:14:49.606Z,22.64
2019-06-20T13:19:46.509Z,22.59
2019-06-20T13:24:42.760Z,22.76
2019-06-20T13:29:39.163Z,23.10
2019-06-20T13:34:35.434Z,23.50
2019-06-20T13:39:31.420Z,23.62
2019-06-20T13:44:27.324Z,23.34
2019-06-20T13:49:24.537Z,23.29
2019-06-20T13:54:21.678Z,22.95
2019-06-20T13:59:22.809Z,22.64
2019-06-20T14:04:18.771Z,22.73
2019-06-20T14:09:16.846Z,22.72
2019-06-20T14:14:13.924Z,22.83
2019-06-20T14:19:09.988Z,23.20
2019-06-20T14:24:06.532Z,23.33
2019-06-20T14:29:02.630Z,23.31
2019-06-20T14:34:00.351Z,23.23
2019-06-20T14:38:57.977Z,22.73
2019-06-20T14:43:58.346Z,22.53
2019-06-20T14:48:56.940Z,22.67
2019-06-20T14:53:58.070Z,23.09
2019-06-20T14:58:55.432Z,23.27
2019-06-20T15:03:51.744Z,23.17
2019-06-20T15:08:51.017Z,22.95
2019-06-20T15:13:47.681Z,22.96
2019-06-20T15:18:50.147Z,23.08
2019-06-20T15:23:49.546Z,23.00
2019-06-20T15:28:46.236Z,22.93
2019-06-20T15:33:43.567Z,22.60
2019-06-20T15:38:39.583Z,22.68
2019-06-20T15:43:43.046Z,21.97
2019-06-20T15:48:40.928Z,21.82
2019-06-20T15:53:37.715Z,22.25
2019-06-20T15:58:35.719Z,22.40
2019-06-20T16:03:32.874Z,22.38
2019-06-20T16:08:58.809Z,22.29
2019-06-20T16:14:00.932Z,22.32
2019-06-20T16:19:08.121Z,22.32
2019-06-20T16:24:12.644Z,22.36
2019-06-20T16:29:10.721Z,22.37
2019-06-20T16:34:45.947Z,22.21
2019-06-20T16:39:43.385Z,21.95
2019-06-20T16:44:50.154Z,22.00
2019-06-20T16:50:00.707Z,22.20
2019-06-20T16:55:20.022Z,22.16
2019-06-20T17:00:18.387Z,22.11
2019-06-20T17:05:18.034Z,21.85
2019-06-20T17:10:15.772Z,21.73
2019-06-20T17:15:13.305Z,21.77
2019-06-20T17:20:11.294Z,21.69
2019-06-20T17:25:12.565Z,21.44
2019-06-20T17:37:02.982Z,21.44
2019-06-20T17:42:30.483Z,21.48
2019-06-20T17:47:28.219Z,21.60
2019-06-20T17:58:36.569Z,22.13
2019-06-20T18:03:39.634Z,22.04
2019-06-20T18:08:42.442Z,21.92
2019-06-20T18:13:46.647Z,21.92
2019-06-20T18:19:08.601Z,21.54
2019-06-20T18:24:23.889Z,21.17
2019-06-20T18:29:24.062Z,21.02
2019-06-20T18:34:30.483Z,20.97
2019-06-20T18:40:13.038Z,20.76
2019-06-20T18:45:11.006Z,20.72
2019-06-20T18:50:08.151Z,20.66
2019-06-20T18:55:04.880Z,20.71
2019-06-20T19:12:24.515Z,20.38
2019-06-20T19:17:20.333Z,20.52
2019-06-20T19:22:17.834Z,20.32
2019-06-20T19:27:13.767Z,20.31
2019-06-20T19:32:09.760Z,20.32
2019-06-20T19:37:05.683Z,20.13
2019-06-20T19:42:08.195Z,20.00
2019-06-20T19:47:21.047Z,19.49
2019-06-20T19:52:21.283Z,19.80
2019-06-20T19:57:14.395Z,19.23
2019-06-20T20:02:10.830Z,19.33
2019-06-20T20:07:07.366Z,19.40
2019-06-20T20:12:05.241Z,19.48
2019-06-20T20:17:01.392Z,19.37
2019-06-20T20:21:57.322Z,19.60
2019-06-20T20:26:53.299Z,19.60
2019-06-20T20:31:49.724Z,19.45
2019-06-20T20:36:46.205Z,19.63
2019-06-20T20:41:45.961Z,19.74
2019-06-20T20:46:43.561Z,19.85
2019-06-20T20:51:48.873Z,19.52
2019-06-20T20:56:44.889Z,19.11
2019-06-20T21:01:41.216Z,19.09
2019-06-20T21:06:40.553Z,19.01
2019-06-20T21:11:36.845Z,19.24
2019-06-20T21:16:34.156Z,19.25
2019-06-20T21:21:33.957Z,19.33
2019-06-20T21:26:48.352Z,19.29
2019-06-20T21:31:35.212Z,19.23
2019-06-20T21:36:49.950Z,19.07
2019-06-20T21:41:50.334Z,19.14
2019-06-20T21:46:54.207Z,19.17
2019-06-20T21:51:55.744Z,19.25
2019-06-20T21:57:02.919Z,18.80
2019-06-20T22:01:59.425Z,18.48
2019-06-20T22:07:25.164Z,18.80
2019-06-20T22:12:51.772Z,19.00
2019-06-20T22:17:47.946Z,18.76
2019-06-20T22:23:01.206Z,18.92
2019-06-20T22:28:09.155Z,18.62
2019-06-20T22:33:06.192Z,18.30
2019-06-20T22:38:04.721Z,18.53
2019-06-20T22:43:08.545Z,18.55
2019-06-20T22:48:03.872Z,18.58
2019-06-20T22:53:08.744Z,18.59
2019-06-20T22:58:05.145Z,18.68
2019-06-20T23:03:04.778Z,18.63
2019-06-20T23:08:01.747Z,18.68
2019-06-20T23:13:01.414Z,18.68
2019-06-20T23:18:02.281Z,18.53
2019-06-20T23:23:01.252Z,18.59
2019-06-20T23:28:00.188Z,18.63
2019-06-20T23:32:58.838Z,18.39
2019-06-20T23:37:56.234Z,18.27
2019-06-20T23:42:52.665Z,18.45
2019-06-20T23:47:50.559Z,18.27
2019-06-20T23:53:00.198Z,18.34
2019-06-20T23:57:56.199Z,18.28
